createdAt,value
2023-03-19T00:02:17.570Z,1.99
2023-03-19T00:04:58.685Z,2.03
2023-03-19T00:07:39.771Z,2.08
2023-03-19T00:10:29.167Z,2.24
2023-03-19T00:13:10.140Z,2.36
2023-03-19T00:15:54.329Z,2.46
2023-03-19T00:18:49.341Z,2.63
2023-03-19T00:21:35.519Z,2.57
2023-03-19T00:24:25.235Z,2.55
2023-03-19T00:27:13.757Z,2.47
2023-03-19T00:29:55.460Z,2.50
2023-03-19T00:32:40.392Z,2.57
2023-03-19T00:35:25.462Z,2.57
2023-03-19T00:38:11.497Z,2.63
2023-03-19T00:40:55.631Z,2.46
2023-03-19T00:43:46.586Z,2.34
2023-03-19T00:46:36.826Z,2.34
2023-03-19T00:49:16.283Z,2.24
2023-03-19T00:51:58.017Z,2.20
2023-03-19T00:54:44.460Z,2.16
2023-03-19T00:57:28.109Z,2.16
2023-03-19T01:00:08.752Z,2.17
2023-03-19T01:02:54.359Z,2.12
2023-03-19T01:05:39.882Z,2.08
2023-03-19T01:08:21.296Z,2.09
2023-03-19T01:11:11.251Z,2.10
2023-03-19T01:13:54.265Z,1.99
2023-03-19T01:16:40.333Z,1.95
2023-03-19T01:19:29.355Z,1.99
2023-03-19T01:22:13.062Z,1.93
2023-03-19T01:24:54.085Z,1.87
2023-03-19T01:27:37.724Z,1.82
2023-03-19T01:30:33.073Z,1.77
2023-03-19T01:33:26.100Z,1.79
2023-03-19T01:36:10.211Z,1.71
2023-03-19T01:39:06.161Z,1.70
2023-03-19T01:41:41.878Z,1.56
2023-03-19T01:44:43.257Z,1.43
2023-03-19T01:47:40.654Z,1.45
2023-03-19T01:50:35.497Z,1.56
2023-03-19T01:53:46.685Z,1.49
2023-03-19T01:56:44.241Z,1.49
2023-03-19T01:59:51.353Z,1.57
2023-03-19T02:03:01.082Z,1.64
2023-03-19T02:06:01.950Z,1.80
2023-03-19T02:08:51.555Z,1.77
2023-03-19T02:11:29.217Z,1.65
2023-03-19T02:14:09.934Z,1.51
2023-03-19T02:16:47.849Z,1.49
2023-03-19T02:19:51.657Z,1.48
2023-03-19T02:22:34.919Z,1.40
2023-03-19T02:25:55.229Z,1.44
2023-03-19T02:28:40.764Z,1.51
2023-03-19T02:31:22.985Z,1.40
2023-03-19T02:34:38.853Z,1.45
2023-03-19T02:37:22.595Z,1.62
2023-03-19T02:40:22.773Z,1.69
2023-03-19T02:43:10.316Z,1.69
2023-03-19T02:45:52.961Z,1.65
2023-03-19T02:48:36.678Z,1.70
2023-03-19T02:51:20.355Z,1.82
2023-03-19T02:54:06.229Z,1.78
2023-03-19T02:56:52.060Z,1.89
2023-03-19T02:59:33.683Z,1.92
2023-03-19T03:02:19.263Z,2.03
2023-03-19T03:05:02.086Z,2.16
2023-03-19T03:07:44.671Z,2.27
2023-03-19T03:10:25.615Z,2.33
2023-03-19T03:13:11.292Z,2.34
2023-03-19T03:15:53.664Z,2.45
2023-03-19T03:18:31.351Z,2.48
2023-03-19T03:21:17.381Z,2.55
2023-03-19T03:24:09.570Z,2.46
2023-03-19T03:26:59.121Z,2.51
2023-03-19T03:29:37.939Z,2.54
2023-03-19T03:32:18.941Z,2.51
2023-03-19T03:35:02.105Z,2.48
2023-03-19T03:37:49.122Z,2.53
2023-03-19T03:40:34.939Z,2.45
2023-03-19T03:43:18.063Z,2.43
2023-03-19T03:45:56.162Z,2.48
2023-03-19T03:48:38.265Z,2.55
2023-03-19T03:51:11.686Z,2.50
2023-03-19T03:53:46.404Z,2.47
2023-03-19T03:56:24.965Z,2.49
2023-03-19T03:59:11.601Z,2.44
2023-03-19T04:01:50.202Z,2.37
2023-03-19T04:04:33.910Z,2.40
2023-03-19T04:07:14.313Z,2.36
2023-03-19T04:10:03.432Z,2.36
2023-03-19T04:12:45.959Z,2.30
2023-03-19T04:15:19.185Z,2.21
2023-03-19T04:17:56.158Z,2.07
2023-03-19T04:20:45.124Z,1.99
2023-03-19T04:23:20.127Z,1.75
2023-03-19T04:26:05.557Z,1.73
2023-03-19T04:28:43.740Z,1.52
2023-03-19T04:31:27.398Z,1.42
2023-03-19T04:34:09.037Z,1.46
2023-03-19T04:36:52.961Z,1.48
2023-03-19T04:39:39.979Z,1.32
2023-03-19T04:42:20.688Z,1.14
2023-03-19T04:45:27.998Z,1.05
2023-03-19T04:48:11.231Z,0.96
2023-03-19T04:50:52.346Z,0.97
2023-03-19T04:53:35.823Z,0.85
2023-03-19T04:56:19.507Z,0.97
2023-03-19T04:59:02.432Z,1.13
2023-03-19T05:01:34.814Z,1.19
2023-03-19T05:04:13.749Z,1.32
2023-03-19T05:06:55.403Z,1.48
2023-03-19T05:09:39.613Z,1.43
2023-03-19T05:12:22.818Z,1.46
2023-03-19T05:14:59.230Z,1.46
2023-03-19T05:17:49.497Z,1.51
2023-03-19T05:20:56.108Z,1.54
2023-03-19T05:23:57.218Z,1.66
2023-03-19T05:26:38.837Z,1.87
2023-03-19T05:29:41.726Z,1.88
2023-03-19T05:32:52.002Z,2.05
2023-03-19T05:36:03.641Z,2.22
2023-03-19T05:39:08.144Z,2.33
2023-03-19T05:42:07.666Z,2.43
2023-03-19T05:44:52.447Z,2.49
2023-03-19T05:47:34.192Z,2.59
2023-03-19T05:50:20.327Z,2.72
2023-03-19T05:53:26.793Z,2.96
2023-03-19T05:56:28.633Z,3.23
2023-03-19T05:59:42.761Z,3.62
2023-03-19T06:02:48.955Z,3.90
2023-03-19T06:05:43.187Z,4.22
2023-03-19T06:08:35.805Z,4.52
2023-03-19T06:11:33.681Z,4.91
2023-03-19T06:14:38.453Z,5.22
2023-03-19T06:17:51.232Z,5.56
2023-03-19T06:20:42.499Z,5.83
2023-03-19T06:23:28.344Z,6.26
2023-03-19T06:26:08.960Z,6.40
2023-03-19T06:28:59.340Z,6.62
2023-03-19T06:31:45.647Z,6.95
2023-03-19T06:34:49.822Z,7.20
2023-03-19T06:37:34.609Z,7.52
2023-03-19T06:40:18.545Z,7.65
2023-03-19T06:42:57.635Z,7.81
2023-03-19T06:45:36.353Z,7.99
2023-03-19T06:48:20.224Z,8.17
2023-03-19T06:50:56.841Z,8.39
2023-03-19T06:53:42.107Z,8.52
2023-03-19T06:56:25.535Z,8.65
2023-03-19T06:59:11.716Z,8.60
2023-03-19T07:02:05.754Z,8.68
2023-03-19T07:04:52.429Z,9.01
2023-03-19T07:07:37.969Z,9.24
2023-03-19T07:10:27.721Z,9.42
2023-03-19T07:13:04.531Z,9.60
2023-03-19T07:15:53.221Z,9.60
2023-03-19T07:18:37.159Z,9.66
2023-03-19T07:21:29.386Z,10.01
2023-03-19T07:24:07.762Z,10.15
2023-03-19T07:26:57.425Z,10.14
2023-03-19T07:29:46.676Z,10.15
2023-03-19T07:32:32.767Z,10.06
2023-03-19T07:35:14.458Z,10.20
2023-03-19T07:37:55.544Z,9.93
2023-03-19T07:40:59.038Z,9.99
2023-03-19T07:43:46.659Z,9.97
2023-03-19T07:46:31.484Z,10.11
2023-03-19T07:49:20.749Z,10.01
2023-03-19T07:52:14.454Z,9.95
2023-03-19T07:54:50.153Z,10.12
2023-03-19T07:57:33.159Z,10.47
2023-03-19T08:00:23.773Z,10.62
2023-03-19T08:03:05.524Z,10.55
2023-03-19T08:06:02.535Z,10.52
2023-03-19T08:08:46.806Z,10.53
2023-03-19T08:11:29.871Z,10.76
2023-03-19T08:14:26.636Z,10.72
2023-03-19T08:17:02.056Z,10.52
2023-03-19T08:19:54.168Z,10.62
2023-03-19T08:22:41.884Z,10.74
2023-03-19T08:25:26.968Z,11.09
2023-03-19T08:28:16.877Z,11.38
2023-03-19T08:31:03.185Z,11.37
2023-03-19T08:33:49.184Z,11.74
2023-03-19T08:36:42.225Z,11.66
2023-03-19T08:39:20.384Z,11.56
2023-03-19T08:41:58.677Z,11.86
2023-03-19T08:44:49.484Z,11.73
2023-03-19T08:47:36.121Z,11.93
2023-03-19T08:50:16.827Z,11.84
2023-03-19T08:53:01.952Z,11.85
2023-03-19T08:55:51.064Z,11.88
2023-03-19T08:58:32.663Z,11.99
2023-03-19T09:01:21.662Z,12.02
2023-03-19T09:04:05.682Z,12.12
2023-03-19T09:06:51.611Z,12.25
2023-03-19T09:09:43.610Z,12.02
2023-03-19T09:12:29.935Z,12.26
2023-03-19T09:15:13.348Z,12.33
2023-03-19T09:18:04.685Z,12.40
2023-03-19T09:20:50.670Z,12.38
2023-03-19T09:23:38.581Z,12.69
2023-03-19T09:26:18.028Z,12.95
2023-03-19T09:29:05.687Z,12.88
2023-03-19T09:31:46.965Z,13.00
2023-03-19T09:34:33.769Z,12.78
2023-03-19T09:37:17.272Z,12.72
2023-03-19T09:40:00.878Z,12.98
2023-03-19T09:43:00.794Z,12.99
2023-03-19T09:45:45.613Z,13.15
2023-03-19T09:48:48.211Z,13.28
2023-03-19T09:51:30.564Z,13.52
2023-03-19T09:54:28.613Z,13.85
2023-03-19T09:57:15.116Z,13.89
2023-03-19T09:59:58.349Z,13.70
2023-03-19T10:03:03.637Z,13.70
2023-03-19T10:06:29.415Z,13.62
2023-03-19T10:09:52.424Z,13.68
2023-03-19T10:13:00.587Z,13.85
2023-03-19T10:15:41.142Z,14.19
2023-03-19T10:19:00.592Z,14.22
2023-03-19T10:22:01.118Z,14.32
2023-03-19T10:24:59.788Z,14.67
2023-03-19T10:27:37.107Z,14.93
2023-03-19T10:30:19.707Z,15.13
2023-03-19T10:33:27.546Z,14.88
2023-03-19T10:36:16.502Z,14.69
2023-03-19T10:39:09.809Z,14.29
2023-03-19T10:42:14.442Z,14.41
2023-03-19T10:45:24.247Z,14.09
2023-03-19T10:48:08.865Z,14.21
2023-03-19T10:51:15.023Z,14.26
2023-03-19T10:56:53.412Z,14.68
2023-03-19T10:59:39.371Z,14.48
2023-03-19T11:02:50.623Z,15.04
2023-03-19T11:05:38.744Z,15.11
2023-03-19T11:08:34.904Z,15.63
2023-03-19T11:11:45.497Z,16.02
2023-03-19T11:14:46.442Z,16.16
2023-03-19T11:18:00.481Z,15.88
2023-03-19T11:20:45.717Z,15.80
2023-03-19T11:23:40.089Z,15.95
2023-03-19T11:26:32.661Z,15.91
2023-03-19T11:29:20.934Z,16.11
2023-03-19T11:32:25.782Z,16.27
2023-03-19T11:35:25.875Z,16.31
2023-03-19T11:38:14.652Z,16.64
2023-03-19T11:41:06.300Z,16.80
2023-03-19T11:43:50.009Z,16.81
2023-03-19T11:46:42.940Z,16.95
2023-03-19T11:49:46.520Z,17.00
2023-03-19T11:52:58.659Z,16.93
2023-03-19T11:55:55.152Z,16.83
2023-03-19T11:59:09.477Z,17.15
2023-03-19T12:02:09.347Z,17.21
2023-03-19T12:04:56.752Z,17.19
2023-03-19T12:07:52.682Z,17.02
2023-03-19T12:10:57.660Z,17.29
2023-03-19T12:14:08.033Z,16.90
2023-03-19T12:17:06.728Z,17.33
2023-03-19T12:20:07.018Z,17.53
2023-03-19T12:23:19.674Z,17.77
2023-03-19T12:26:25.011Z,17.82
2023-03-19T12:29:18.664Z,17.73
2023-03-19T12:32:20.979Z,17.58
2023-03-19T12:35:11.124Z,17.43
2023-03-19T12:38:01.771Z,17.37
2023-03-19T12:40:58.482Z,17.74
2023-03-19T12:43:54.867Z,17.94
2023-03-19T12:46:39.102Z,18.13
2023-03-19T12:49:38.826Z,17.97
2023-03-19T12:52:27.786Z,17.93
2023-03-19T12:55:36.575Z,18.14
2023-03-19T12:58:28.403Z,18.41
2023-03-19T13:01:29.947Z,18.44
2023-03-19T13:04:29.279Z,18.69
2023-03-19T13:08:00.037Z,18.75
2023-03-19T13:10:46.377Z,18.63
2023-03-19T13:13:51.659Z,18.60
2023-03-19T13:16:41.449Z,18.43
2023-03-19T13:19:46.017Z,18.54
2023-03-19T13:22:22.767Z,18.86
2023-03-19T13:24:59.705Z,18.89
2023-03-19T13:27:41.664Z,18.85
2023-03-19T13:30:29.372Z,18.68
2023-03-19T13:33:25.829Z,18.91
2023-03-19T13:36:07.256Z,18.81
2023-03-19T13:38:50.855Z,19.03
2023-03-19T13:41:51.543Z,19.26
2023-03-19T13:44:46.701Z,19.51
2023-03-19T13:48:04.655Z,19.45
2023-03-19T13:51:36.697Z,19.25
2023-03-19T13:54:25.411Z,19.30
2023-03-19T13:57:18.664Z,19.68
2023-03-19T14:00:22.766Z,18.70
2023-03-19T14:03:38.439Z,19.09
2023-03-19T14:06:36.756Z,19.21
2023-03-19T14:09:41.057Z,19.18
2023-03-19T14:12:40.108Z,18.73
2023-03-19T14:15:28.748Z,18.41
2023-03-19T14:18:19.433Z,17.80
2023-03-19T14:21:36.087Z,17.51
2023-03-19T14:24:58.763Z,17.16
2023-03-19T14:28:04.157Z,17.40
2023-03-19T14:30:54.982Z,17.44
2023-03-19T14:33:58.523Z,17.52
2023-03-19T14:36:51.898Z,17.37
2023-03-19T14:39:59.685Z,17.38
2023-03-19T14:42:58.774Z,16.93
2023-03-19T14:45:44.994Z,17.17
2023-03-19T14:49:03.226Z,17.22
2023-03-19T14:51:57.179Z,17.37
2023-03-19T14:55:10.310Z,16.99
2023-03-19T14:57:59.807Z,16.97
2023-03-19T15:00:37.351Z,16.67
2023-03-19T15:03:44.529Z,16.45
2023-03-19T15:06:27.714Z,16.34
2023-03-19T15:09:29.776Z,16.39
2023-03-19T15:12:34.106Z,16.28
2023-03-19T15:15:40.791Z,16.56
2023-03-19T15:18:27.115Z,16.91
2023-03-19T15:21:11.468Z,17.27
2023-03-19T15:24:01.604Z,17.41
2023-03-19T15:26:44.004Z,17.64
2023-03-19T15:29:33.215Z,17.48
2023-03-19T15:32:49.780Z,17.75
2023-03-19T15:35:42.013Z,18.00
2023-03-19T15:38:26.228Z,18.00
2023-03-19T15:41:12.094Z,17.98
2023-03-19T15:43:58.546Z,17.85
2023-03-19T15:46:42.702Z,17.19
2023-03-19T15:49:40.214Z,16.82
2023-03-19T15:52:26.218Z,16.65
2023-03-19T15:55:09.370Z,16.38
2023-03-19T15:58:00.671Z,16.61
2023-03-19T16:00:47.487Z,16.61
2023-03-19T16:03:52.123Z,16.80
2023-03-19T16:06:51.799Z,16.97
2023-03-19T16:09:34.809Z,17.25
2023-03-19T16:12:43.005Z,17.13
2023-03-19T16:16:22.887Z,16.79
2023-03-19T16:19:12.573Z,16.19
2023-03-19T16:22:00.180Z,15.77
2023-03-19T16:25:25.955Z,15.40
2023-03-19T16:28:08.032Z,15.06
2023-03-19T16:30:57.213Z,14.72
2023-03-19T16:33:37.744Z,14.48
2023-03-19T16:36:20.188Z,14.34
2023-03-19T16:39:29.112Z,14.08
2023-03-19T16:42:42.708Z,13.82
2023-03-19T16:45:38.766Z,13.62
2023-03-19T16:48:29.652Z,13.33
2023-03-19T16:51:19.672Z,13.32
2023-03-19T16:54:00.112Z,13.21
2023-03-19T16:56:54.710Z,13.04
2023-03-19T16:59:38.644Z,12.93
2023-03-19T17:02:28.025Z,12.77
2023-03-19T17:05:04.052Z,12.71
2023-03-19T17:07:50.835Z,12.51
2023-03-19T17:10:49.074Z,12.37
2023-03-19T17:13:38.358Z,12.26
2023-03-19T17:16:20.653Z,12.14
2023-03-19T17:19:15.898Z,12.21
2023-03-19T17:21:57.117Z,12.07
2023-03-19T17:24:43.682Z,12.01
2023-03-19T17:27:22.706Z,11.99
2023-03-19T17:30:08.138Z,11.97
2023-03-19T17:32:58.025Z,11.97
2023-03-19T17:35:48.759Z,11.94
2023-03-19T17:38:34.141Z,11.84
2023-03-19T17:41:24.105Z,11.83
2023-03-19T17:44:09.339Z,11.67
2023-03-19T17:46:58.688Z,11.70
2023-03-19T17:49:35.253Z,11.63
2023-03-19T17:52:30.677Z,11.62
2023-03-19T17:55:25.183Z,11.65
2023-03-19T17:58:09.845Z,11.74
2023-03-19T18:01:02.556Z,11.67
2023-03-19T18:03:42.997Z,11.82
2023-03-19T18:06:20.611Z,11.84
2023-03-19T18:08:58.057Z,11.64
2023-03-19T18:11:44.077Z,11.55
2023-03-19T18:14:32.847Z,11.59
2023-03-19T18:17:17.225Z,11.64
2023-03-19T18:19:56.362Z,11.61
2023-03-19T18:22:42.949Z,11.67
2023-03-19T18:25:32.257Z,11.61
2023-03-19T18:27:59.059Z,11.63
2023-03-19T18:30:49.601Z,11.60
2023-03-19T18:33:34.991Z,11.66
2023-03-19T18:36:24.594Z,11.63
2023-03-19T18:39:10.066Z,11.51
2023-03-19T18:41:56.957Z,11.46
2023-03-19T18:44:45.606Z,11.40
2023-03-19T18:47:29.226Z,11.33
2023-03-19T18:50:16.809Z,11.34
2023-03-19T18:53:06.359Z,11.39
2023-03-19T18:55:52.932Z,11.34
2023-03-19T18:58:36.516Z,11.35
2023-03-19T19:01:16.545Z,11.33
2023-03-19T19:04:09.136Z,11.20
2023-03-19T19:07:02.960Z,11.15
2023-03-19T19:09:47.114Z,11.10
2023-03-19T19:12:35.847Z,11.09
2023-03-19T19:15:19.360Z,11.06
2023-03-19T19:18:09.954Z,11.11
2023-03-19T19:20:51.278Z,11.06
2023-03-19T19:23:37.633Z,10.97
2023-03-19T19:26:50.137Z,11.01
2023-03-19T19:29:36.617Z,11.10
2023-03-19T19:32:36.746Z,11.05
2023-03-19T19:35:30.669Z,11.05
2023-03-19T19:38:08.385Z,11.00
2023-03-19T19:40:56.816Z,10.97
2023-03-19T19:43:42.011Z,10.98
2023-03-19T19:46:27.164Z,10.90
2023-03-19T19:49:15.499Z,10.97
2023-03-19T19:51:55.608Z,10.99
2023-03-19T19:54:44.492Z,10.94
2023-03-19T19:57:33.116Z,10.99
2023-03-19T20:00:30.959Z,10.82
2023-03-19T20:03:23.782Z,10.75
2023-03-19T20:06:12.985Z,10.83
2023-03-19T20:09:01.830Z,10.81
2023-03-19T20:11:42.355Z,10.72
2023-03-19T20:14:37.570Z,10.75
2023-03-19T20:17:29.819Z,10.69
2023-03-19T20:20:25.194Z,10.70
2023-03-19T20:23:10.217Z,10.73
2023-03-19T20:26:02.266Z,10.67
2023-03-19T20:28:47.999Z,10.63
2023-03-19T20:31:37.056Z,10.62
2023-03-19T20:34:38.447Z,10.64
2023-03-19T20:37:21.566Z,10.68
2023-03-19T20:40:00.619Z,10.62
2023-03-19T20:42:46.885Z,10.69
2023-03-19T20:45:44.646Z,10.67
2023-03-19T20:48:28.826Z,10.60
2023-03-19T20:51:08.089Z,10.62
2023-03-19T20:53:58.818Z,10.61
2023-03-19T20:56:38.196Z,10.51
2023-03-19T20:59:24.759Z,10.52
2023-03-19T21:02:28.422Z,10.54
2023-03-19T21:05:09.523Z,10.57
2023-03-19T21:08:04.587Z,10.49
2023-03-19T21:11:04.725Z,10.49
2023-03-19T21:13:57.104Z,10.47
2023-03-19T21:16:32.340Z,10.33
2023-03-19T21:19:21.403Z,10.37
2023-03-19T21:21:55.778Z,10.35
2023-03-19T21:24:42.658Z,10.29
2023-03-19T21:27:27.037Z,10.22
2023-03-19T21:30:17.053Z,10.20
2023-03-19T21:32:57.121Z,10.13
2023-03-19T21:35:43.332Z,10.05
2023-03-19T21:38:23.426Z,10.04
2023-03-19T21:41:12.493Z,9.98
2023-03-19T21:44:19.557Z,9.91
2023-03-19T21:47:02.635Z,9.81
2023-03-19T21:49:48.623Z,9.75
2023-03-19T21:52:28.437Z,9.65
2023-03-19T21:55:12.605Z,9.60
2023-03-19T21:58:05.696Z,9.59
2023-03-19T22:00:51.502Z,9.54
2023-03-19T22:03:34.635Z,9.44
2023-03-19T22:06:20.310Z,9.23
2023-03-19T22:09:11.392Z,9.29
2023-03-19T22:11:56.928Z,9.28
2023-03-19T22:14:54.641Z,9.37
2023-03-19T22:17:34.390Z,9.44
2023-03-19T22:20:28.689Z,9.39
2023-03-19T22:23:06.606Z,9.45
2023-03-19T22:25:54.889Z,9.51
2023-03-19T22:28:37.207Z,9.52
2023-03-19T22:31:23.768Z,9.56
2023-03-19T22:34:17.650Z,9.67
2023-03-19T22:37:03.289Z,9.64
2023-03-19T22:39:51.032Z,9.56
2023-03-19T22:42:35.852Z,9.47
2023-03-19T22:45:34.970Z,9.56
2023-03-19T22:48:17.252Z,9.44
2023-03-19T22:51:09.014Z,9.39
2023-03-19T22:53:52.865Z,9.48
2023-03-19T22:56:29.051Z,9.37
2023-03-19T22:59:07.762Z,9.39
2023-03-19T23:01:58.067Z,9.33
2023-03-19T23:04:43.015Z,9.25
2023-03-19T23:07:28.938Z,9.25
2023-03-19T23:10:28.787Z,9.07
2023-03-19T23:13:12.731Z,9.19
2023-03-19T23:15:55.401Z,9.01
2023-03-19T23:18:41.710Z,9.04
2023-03-19T23:21:34.119Z,8.98
2023-03-19T23:24:14.063Z,8.96
2023-03-19T23:26:59.790Z,9.00
2023-03-19T23:29:51.929Z,8.91
2023-03-19T23:32:41.930Z,8.93
2023-03-19T23:35:24.907Z,8.96
2023-03-19T23:38:05.269Z,8.93
2023-03-19T23:40:55.968Z,8.74
2023-03-19T23:43:45.671Z,8.79
2023-03-19T23:46:34.602Z,8.71
2023-03-19T23:49:32.337Z,8.47
2023-03-19T23:52:22.585Z,8.41
2023-03-19T23:55:11.023Z,8.47
2023-03-19T23:57:50.620Z,8.29
